sensor_id;sensor_type;location;lat;lon;timestamp;temperature;humidity
34147;DHT22;20423;49.448;9.056;2022-07-06T00:00:07;16.10;99.90
34147;DHT22;20423;49.448;9.056;2022-07-06T00:02:33;16.20;99.90
34147;DHT22;20423;49.448;9.056;2022-07-06T00:04:58;16.10;99.90
34147;DHT22;20423;49.448;9.056;2022-07-06T00:07:27;16.10;99.90
34147;DHT22;20423;49.448;9.056;2022-07-06T00:09:53;16.00;99.90
34147;DHT22;20423;49.448;9.056;2022-07-06T00:12:19;15.90;99.90
34147;DHT22;20423;49.448;9.056;2022-07-06T00:14:45;15.80;99.90
34147;DHT22;20423;49.448;9.056;2022-07-06T00:17:10;15.80;99.90
34147;DHT22;20423;49.448;9.056;2022-07-06T00:19:36;15.70;99.90
34147;DHT22;20423;49.448;9.056;2022-07-06T00:22:08;15.70;99.90
34147;DHT22;20423;49.448;9.056;2022-07-06T00:24:33;15.70;99.90
34147;DHT22;20423;49.448;9.056;2022-07-06T00:26:59;15.60;99.90
34147;DHT22;20423;49.448;9.056;2022-07-06T00:29:25;15.60;99.90
34147;DHT22;20423;49.448;9.056;2022-07-06T00:31:50;15.50;99.90
34147;DHT22;20423;49.448;9.056;2022-07-06T00:34:16;15.50;99.90
34147;DHT22;20423;49.448;9.056;2022-07-06T00:36:45;15.50;99.90
34147;DHT22;20423;49.448;9.056;2022-07-06T00:39:11;15.50;99.90
34147;DHT22;20423;49.448;9.056;2022-07-06T00:41:36;15.40;99.90
34147;DHT22;20423;49.448;9.056;2022-07-06T00:44:08;15.40;99.90
34147;DHT22;20423;49.448;9.056;2022-07-06T00:46:34;15.40;99.90
34147;DHT22;20423;49.448;9.056;2022-07-06T00:49:03;15.40;99.90
34147;DHT22;20423;49.448;9.056;2022-07-06T00:51:30;15.30;99.90
34147;DHT22;20423;49.448;9.056;2022-07-06T00:53:59;15.20;99.90
34147;DHT22;20423;49.448;9.056;2022-07-06T00:56:26;15.20;99.90
34147;DHT22;20423;49.448;9.056;2022-07-06T00:58:54;15.10;99.90
34147;DHT22;20423;49.448;9.056;2022-07-06T01:01:22;15.00;99.90
34147;DHT22;20423;49.448;9.056;2022-07-06T01:03:48;14.90;99.90
34147;DHT22;20423;49.448;9.056;2022-07-06T01:06:14;15.00;99.90
34147;DHT22;20423;49.448;9.056;2022-07-06T01:08:40;14.90;99.90
34147;DHT22;20423;49.448;9.056;2022-07-06T01:11:07;14.90;99.90
34147;DHT22;20423;49.448;9.056;2022-07-06T01:13:33;14.80;99.90
34147;DHT22;20423;49.448;9.056;2022-07-06T01:15:59;14.80;99.90
34147;DHT22;20423;49.448;9.056;2022-07-06T01:18:25;14.80;99.90
34147;DHT22;20423;49.448;9.056;2022-07-06T01:20:51;14.70;99.90
34147;DHT22;20423;49.448;9.056;2022-07-06T01:23:17;14.70;99.90
34147;DHT22;20423;49.448;9.056;2022-07-06T01:25:43;14.60;99.90
34147;DHT22;20423;49.448;9.056;2022-07-06T01:28:09;14.60;99.90
34147;DHT22;20423;49.448;9.056;2022-07-06T01:30:38;14.60;99.90
34147;DHT22;20423;49.448;9.056;2022-07-06T01:33:03;14.50;99.90
34147;DHT22;20423;49.448;9.056;2022-07-06T01:35:31;14.50;99.90
34147;DHT22;20423;49.448;9.056;2022-07-06T01:37:59;14.40;99.90
34147;DHT22;20423;49.448;9.056;2022-07-06T01:40:25;14.40;99.90
34147;DHT22;20423;49.448;9.056;2022-07-06T01:42:51;14.40;99.90
34147;DHT22;20423;49.448;9.056;2022-07-06T01:45:18;14.30;99.90
34147;DHT22;20423;49.448;9.056;2022-07-06T01:47:45;14.30;99.90
34147;DHT22;20423;49.448;9.056;2022-07-06T01:50:10;14.30;99.90
34147;DHT22;20423;49.448;9.056;2022-07-06T01:52:40;14.20;99.90
34147;DHT22;20423;49.448;9.056;2022-07-06T01:55:06;14.30;99.90
34147;DHT22;20423;49.448;9.056;2022-07-06T01:57:37;14.30;99.90
34147;DHT22;20423;49.448;9.056;2022-07-06T02:00:08;14.30;99.90
34147;DHT22;20423;49.448;9.056;2022-07-06T02:02:38;14.30;99.90
34147;DHT22;20423;49.448;9.056;2022-07-06T02:05:04;14.20;99.90
34147;DHT22;20423;49.448;9.056;2022-07-06T02:07:34;14.10;99.90
34147;DHT22;20423;49.448;9.056;2022-07-06T02:10:01;14.10;99.90
34147;DHT22;20423;49.448;9.056;2022-07-06T02:12:27;14.00;99.90
34147;DHT22;20423;49.448;9.056;2022-07-06T02:14:53;14.00;99.90
34147;DHT22;20423;49.448;9.056;2022-07-06T02:17:18;13.90;99.90
34147;DHT22;20423;49.448;9.056;2022-07-06T02:19:44;13.90;99.90
34147;DHT22;20423;49.448;9.056;2022-07-06T02:22:12;13.90;99.90
34147;DHT22;20423;49.448;9.056;2022-07-06T02:24:38;13.80;99.90
34147;DHT22;20423;49.448;9.056;2022-07-06T02:27:04;13.80;99.90
34147;DHT22;20423;49.448;9.056;2022-07-06T02:29:30;13.70;99.90
34147;DHT22;20423;49.448;9.056;2022-07-06T02:31:56;13.70;99.90
34147;DHT22;20423;49.448;9.056;2022-07-06T02:34:22;13.60;99.90
34147;DHT22;20423;49.448;9.056;2022-07-06T02:36:51;13.60;99.90
34147;DHT22;20423;49.448;9.056;2022-07-06T02:39:18;13.50;99.90
34147;DHT22;20423;49.448;9.056;2022-07-06T02:41:44;13.50;99.90
34147;DHT22;20423;49.448;9.056;2022-07-06T02:44:10;13.50;99.90
34147;DHT22;20423;49.448;9.056;2022-07-06T02:46:38;13.40;99.90
34147;DHT22;20423;49.448;9.056;2022-07-06T02:49:04;13.40;99.90
34147;DHT22;20423;49.448;9.056;2022-07-06T02:51:33;13.40;99.90
34147;DHT22;20423;49.448;9.056;2022-07-06T02:53:59;13.40;99.90
34147;DHT22;20423;49.448;9.056;2022-07-06T02:56:25;13.40;99.90
34147;DHT22;20423;49.448;9.056;2022-07-06T02:58:51;13.40;99.90
34147;DHT22;20423;49.448;9.056;2022-07-06T03:01:17;13.40;99.90
34147;DHT22;20423;49.448;9.056;2022-07-06T03:03:43;13.40;99.90
34147;DHT22;20423;49.448;9.056;2022-07-06T03:06:10;13.30;99.90
34147;DHT22;20423;49.448;9.056;2022-07-06T03:08:36;13.30;99.90
34147;DHT22;20423;49.448;9.056;2022-07-06T03:11:02;13.30;99.90
34147;DHT22;20423;49.448;9.056;2022-07-06T03:13:29;13.20;99.90
34147;DHT22;20423;49.448;9.056;2022-07-06T03:15:55;13.10;99.90
34147;DHT22;20423;49.448;9.056;2022-07-06T03:18:21;13.10;99.90
34147;DHT22;20423;49.448;9.056;2022-07-06T03:20:50;13.10;99.90
34147;DHT22;20423;49.448;9.056;2022-07-06T03:23:17;13.10;99.90
34147;DHT22;20423;49.448;9.056;2022-07-06T03:25:44;13.00;99.90
34147;DHT22;20423;49.448;9.056;2022-07-06T03:28:10;13.00;99.90
34147;DHT22;20423;49.448;9.056;2022-07-06T03:30:36;13.00;99.90
34147;DHT22;20423;49.448;9.056;2022-07-06T03:33:02;12.90;99.90
34147;DHT22;20423;49.448;9.056;2022-07-06T03:35:35;12.90;99.90
34147;DHT22;20423;49.448;9.056;2022-07-06T03:38:04;12.90;99.90
34147;DHT22;20423;49.448;9.056;2022-07-06T03:40:31;12.90;99.90
34147;DHT22;20423;49.448;9.056;2022-07-06T03:42:56;12.90;99.90
34147;DHT22;20423;49.448;9.056;2022-07-06T03:45:27;13.00;99.90
34147;DHT22;20423;49.448;9.056;2022-07-06T03:47:54;13.00;99.90
34147;DHT22;20423;49.448;9.056;2022-07-06T03:50:20;13.00;99.90
34147;DHT22;20423;49.448;9.056;2022-07-06T03:52:46;13.10;99.90
34147;DHT22;20423;49.448;9.056;2022-07-06T03:55:12;13.10;99.90
34147;DHT22;20423;49.448;9.056;2022-07-06T03:57:45;13.20;99.90
34147;DHT22;20423;49.448;9.056;2022-07-06T04:00:15;13.30;99.90
34147;DHT22;20423;49.448;9.056;2022-07-06T04:02:45;13.40;99.90
34147;DHT22;20423;49.448;9.056;2022-07-06T04:05:17;13.40;99.90
34147;DHT22;20423;49.448;9.056;2022-07-06T04:07:47;13.50;99.90
34147;DHT22;20423;49.448;9.056;2022-07-06T04:10:17;13.60;99.90
34147;DHT22;20423;49.448;9.056;2022-07-06T04:12:44;13.70;99.90
34147;DHT22;20423;49.448;9.056;2022-07-06T04:15:11;13.80;99.90
34147;DHT22;20423;49.448;9.056;2022-07-06T04:17:41;13.80;99.90
34147;DHT22;20423;49.448;9.056;2022-07-06T04:20:24;13.80;99.90
34147;DHT22;20423;49.448;9.056;2022-07-06T04:23:00;13.80;99.90
34147;DHT22;20423;49.448;9.056;2022-07-06T04:25:27;13.80;99.90
34147;DHT22;20423;49.448;9.056;2022-07-06T04:27:55;13.90;99.90
34147;DHT22;20423;49.448;9.056;2022-07-06T04:30:22;13.90;99.90
34147;DHT22;20423;49.448;9.056;2022-07-06T04:32:48;14.00;99.90
34147;DHT22;20423;49.448;9.056;2022-07-06T04:35:22;14.00;99.90
34147;DHT22;20423;49.448;9.056;2022-07-06T04:37:50;14.10;99.90
34147;DHT22;20423;49.448;9.056;2022-07-06T04:40:18;14.00;99.90
34147;DHT22;20423;49.448;9.056;2022-07-06T04:42:45;14.00;99.90
34147;DHT22;20423;49.448;9.056;2022-07-06T04:45:20;14.00;99.90
34147;DHT22;20423;49.448;9.056;2022-07-06T04:47:46;14.00;99.90
34147;DHT22;20423;49.448;9.056;2022-07-06T04:50:13;14.00;99.90
34147;DHT22;20423;49.448;9.056;2022-07-06T04:52:39;14.10;99.90
34147;DHT22;20423;49.448;9.056;2022-07-06T04:55:08;14.10;99.90
34147;DHT22;20423;49.448;9.056;2022-07-06T04:57:41;14.10;99.90
34147;DHT22;20423;49.448;9.056;2022-07-06T05:00:08;14.10;99.90
34147;DHT22;20423;49.448;9.056;2022-07-06T05:02:34;14.20;99.90
34147;DHT22;20423;49.448;9.056;2022-07-06T05:05:00;14.30;99.90
34147;DHT22;20423;49.448;9.056;2022-07-06T05:07:36;14.40;99.90
34147;DHT22;20423;49.448;9.056;2022-07-06T05:10:09;14.40;99.90
34147;DHT22;20423;49.448;9.056;2022-07-06T05:12:38;14.40;99.90
34147;DHT22;20423;49.448;9.056;2022-07-06T05:15:13;14.30;99.90
34147;DHT22;20423;49.448;9.056;2022-07-06T05:17:40;14.40;99.90
34147;DHT22;20423;49.448;9.056;2022-07-06T05:20:07;14.50;99.90
34147;DHT22;20423;49.448;9.056;2022-07-06T05:22:36;14.60;99.90
34147;DHT22;20423;49.448;9.056;2022-07-06T05:25:02;14.70;99.90
34147;DHT22;20423;49.448;9.056;2022-07-06T05:27:28;14.70;99.90
34147;DHT22;20423;49.448;9.056;2022-07-06T05:29:54;14.70;99.90
34147;DHT22;20423;49.448;9.056;2022-07-06T05:32:20;14.60;99.90
34147;DHT22;20423;49.448;9.056;2022-07-06T05:34:47;14.50;99.90
34147;DHT22;20423;49.448;9.056;2022-07-06T05:37:13;14.50;99.90
34147;DHT22;20423;49.448;9.056;2022-07-06T05:39:41;14.50;99.90
34147;DHT22;20423;49.448;9.056;2022-07-06T05:42:11;14.50;99.90
34147;DHT22;20423;49.448;9.056;2022-07-06T05:44:37;14.50;99.90
34147;DHT22;20423;49.448;9.056;2022-07-06T05:47:04;14.40;99.90
34147;DHT22;20423;49.448;9.056;2022-07-06T05:49:48;14.40;99.90
34147;DHT22;20423;49.448;9.056;2022-07-06T05:52:35;14.40;99.90
34147;DHT22;20423;49.448;9.056;2022-07-06T05:55:01;14.40;99.90
34147;DHT22;20423;49.448;9.056;2022-07-06T05:57:28;14.40;99.90
34147;DHT22;20423;49.448;9.056;2022-07-06T05:59:54;14.50;99.90
34147;DHT22;20423;49.448;9.056;2022-07-06T06:02:20;14.50;99.90
34147;DHT22;20423;49.448;9.056;2022-07-06T06:04:45;14.50;99.90
34147;DHT22;20423;49.448;9.056;2022-07-06T06:07:17;14.50;99.90
34147;DHT22;20423;49.448;9.056;2022-07-06T06:09:43;14.50;99.90
34147;DHT22;20423;49.448;9.056;2022-07-06T06:12:09;14.40;99.90
34147;DHT22;20423;49.448;9.056;2022-07-06T06:14:35;14.50;99.90
34147;DHT22;20423;49.448;9.056;2022-07-06T06:17:04;14.50;99.90
34147;DHT22;20423;49.448;9.056;2022-07-06T06:19:36;14.50;99.90
34147;DHT22;20423;49.448;9.056;2022-07-06T06:22:02;14.60;99.90
34147;DHT22;20423;49.448;9.056;2022-07-06T06:24:28;14.60;99.90
34147;DHT22;20423;49.448;9.056;2022-07-06T06:26:54;14.60;99.90
34147;DHT22;20423;49.448;9.056;2022-07-06T06:29:19;14.70;99.90
34147;DHT22;20423;49.448;9.056;2022-07-06T06:31:45;14.80;99.90
34147;DHT22;20423;49.448;9.056;2022-07-06T06:34:11;14.90;99.90
34147;DHT22;20423;49.448;9.056;2022-07-06T06:36:37;14.90;99.90
34147;DHT22;20423;49.448;9.056;2022-07-06T06:39:02;15.00;99.90
34147;DHT22;20423;49.448;9.056;2022-07-06T06:41:28;15.00;99.90
34147;DHT22;20423;49.448;9.056;2022-07-06T06:43:54;15.00;99.90
34147;DHT22;20423;49.448;9.056;2022-07-06T06:46:23;15.00;99.90
34147;DHT22;20423;49.448;9.056;2022-07-06T06:48:49;15.10;99.90
34147;DHT22;20423;49.448;9.056;2022-07-06T06:51:14;15.30;99.90
34147;DHT22;20423;49.448;9.056;2022-07-06T06:53:40;15.20;99.90
34147;DHT22;20423;49.448;9.056;2022-07-06T06:56:09;15.20;99.90
34147;DHT22;20423;49.448;9.056;2022-07-06T06:58:34;15.30;99.90
34147;DHT22;20423;49.448;9.056;2022-07-06T07:01:00;15.40;99.90
34147;DHT22;20423;49.448;9.056;2022-07-06T07:03:26;15.40;99.90
34147;DHT22;20423;49.448;9.056;2022-07-06T07:05:52;15.30;99.90
34147;DHT22;20423;49.448;9.056;2022-07-06T07:08:17;15.40;99.90
34147;DHT22;20423;49.448;9.056;2022-07-06T07:10:43;15.60;99.90
34147;DHT22;20423;49.448;9.056;2022-07-06T07:13:09;15.70;99.90
34147;DHT22;20423;49.448;9.056;2022-07-06T07:15:34;15.70;99.90
34147;DHT22;20423;49.448;9.056;2022-07-06T07:18:00;15.70;99.90
34147;DHT22;20423;49.448;9.056;2022-07-06T07:20:26;15.90;99.90
34147;DHT22;20423;49.448;9.056;2022-07-06T07:22:55;16.30;99.90
34147;DHT22;20423;49.448;9.056;2022-07-06T07:25:21;17.40;99.90
34147;DHT22;20423;49.448;9.056;2022-07-06T07:27:47;18.60;99.90
34147;DHT22;20423;49.448;9.056;2022-07-06T07:30:13;19.80;99.90
34147;DHT22;20423;49.448;9.056;2022-07-06T07:32:39;20.20;99.90
34147;DHT22;20423;49.448;9.056;2022-07-06T07:35:08;20.70;99.90
34147;DHT22;20423;49.448;9.056;2022-07-06T07:37:34;21.60;99.90
34147;DHT22;20423;49.448;9.056;2022-07-06T07:40:01;22.30;99.90
34147;DHT22;20423;49.448;9.056;2022-07-06T07:42:26;22.40;99.90
34147;DHT22;20423;49.448;9.056;2022-07-06T07:44:52;21.20;99.90
34147;DHT22;20423;49.448;9.056;2022-07-06T07:47:18;20.10;99.90
34147;DHT22;20423;49.448;9.056;2022-07-06T07:49:44;19.50;99.90
34147;DHT22;20423;49.448;9.056;2022-07-06T07:52:12;18.90;99.90
34147;DHT22;20423;49.448;9.056;2022-07-06T07:54:38;18.30;99.90
34147;DHT22;20423;49.448;9.056;2022-07-06T07:57:04;18.10;99.90
34147;DHT22;20423;49.448;9.056;2022-07-06T07:59:30;17.90;99.90
34147;DHT22;20423;49.448;9.056;2022-07-06T08:01:56;17.90;99.90
34147;DHT22;20423;49.448;9.056;2022-07-06T08:04:21;18.70;99.90
34147;DHT22;20423;49.448;9.056;2022-07-06T08:06:55;20.40;99.90
34147;DHT22;20423;49.448;9.056;2022-07-06T08:09:20;21.60;99.90
34147;DHT22;20423;49.448;9.056;2022-07-06T08:11:46;22.60;99.90
34147;DHT22;20423;49.448;9.056;2022-07-06T08:14:12;23.20;99.90
34147;DHT22;20423;49.448;9.056;2022-07-06T08:16:47;23.60;99.90
34147;DHT22;20423;49.448;9.056;2022-07-06T08:19:13;24.00;99.90
34147;DHT22;20423;49.448;9.056;2022-07-06T08:21:41;24.90;99.60
34147;DHT22;20423;49.448;9.056;2022-07-06T08:24:07;25.00;98.40
34147;DHT22;20423;49.448;9.056;2022-07-06T08:26:34;24.40;98.50
34147;DHT22;20423;49.448;9.056;2022-07-06T08:29:02;23.70;98.60
34147;DHT22;20423;49.448;9.056;2022-07-06T08:31:29;24.00;98.20
34147;DHT22;20423;49.448;9.056;2022-07-06T08:33:55;24.80;97.10
34147;DHT22;20423;49.448;9.056;2022-07-06T08:36:22;25.20;97.40
34147;DHT22;20423;49.448;9.056;2022-07-06T08:38:49;25.70;97.20
34147;DHT22;20423;49.448;9.056;2022-07-06T08:41:16;25.30;96.30
34147;DHT22;20423;49.448;9.056;2022-07-06T08:43:44;26.10;94.90
34147;DHT22;20423;49.448;9.056;2022-07-06T08:46:12;26.40;93.80
34147;DHT22;20423;49.448;9.056;2022-07-06T08:48:40;26.10;94.20
34147;DHT22;20423;49.448;9.056;2022-07-06T08:51:06;25.60;94.30
34147;DHT22;20423;49.448;9.056;2022-07-06T08:53:33;24.00;95.70
34147;DHT22;20423;49.448;9.056;2022-07-06T08:55:59;22.60;98.00
34147;DHT22;20423;49.448;9.056;2022-07-06T08:58:27;22.10;98.90
34147;DHT22;20423;49.448;9.056;2022-07-06T09:01:00;22.10;99.00
34147;DHT22;20423;49.448;9.056;2022-07-06T09:03:27;21.30;99.80
34147;DHT22;20423;49.448;9.056;2022-07-06T09:05:59;21.20;99.90
34147;DHT22;20423;49.448;9.056;2022-07-06T09:08:31;20.80;99.90
34147;DHT22;20423;49.448;9.056;2022-07-06T09:10:57;20.30;99.90
34147;DHT22;20423;49.448;9.056;2022-07-06T09:13:22;20.00;99.90
34147;DHT22;20423;49.448;9.056;2022-07-06T09:15:48;20.80;99.90
34147;DHT22;20423;49.448;9.056;2022-07-06T09:18:17;21.20;99.90
34147;DHT22;20423;49.448;9.056;2022-07-06T09:20:43;20.80;99.90
34147;DHT22;20423;49.448;9.056;2022-07-06T09:23:09;20.80;99.90
34147;DHT22;20423;49.448;9.056;2022-07-06T09:25:35;20.90;99.90
34147;DHT22;20423;49.448;9.056;2022-07-06T09:28:01;21.80;99.90
34147;DHT22;20423;49.448;9.056;2022-07-06T09:30:29;21.80;99.90
34147;DHT22;20423;49.448;9.056;2022-07-06T09:33:07;22.00;99.90
34147;DHT22;20423;49.448;9.056;2022-07-06T09:35:37;22.30;99.90
34147;DHT22;20423;49.448;9.056;2022-07-06T09:38:13;22.70;99.90
34147;DHT22;20423;49.448;9.056;2022-07-06T09:40:41;22.40;99.90
34147;DHT22;20423;49.448;9.056;2022-07-06T09:43:13;21.50;99.90
34147;DHT22;20423;49.448;9.056;2022-07-06T09:45:41;20.50;99.90
34147;DHT22;20423;49.448;9.056;2022-07-06T09:48:13;20.30;99.90
34147;DHT22;20423;49.448;9.056;2022-07-06T09:50:43;20.50;99.90
34147;DHT22;20423;49.448;9.056;2022-07-06T09:53:10;20.70;99.90
34147;DHT22;20423;49.448;9.056;2022-07-06T09:55:36;21.00;99.90
34147;DHT22;20423;49.448;9.056;2022-07-06T09:58:03;21.10;99.90
34147;DHT22;20423;49.448;9.056;2022-07-06T10:00:32;20.90;99.90
34147;DHT22;20423;49.448;9.056;2022-07-06T10:02:58;20.80;99.90
34147;DHT22;20423;49.448;9.056;2022-07-06T10:05:25;21.20;99.90
34147;DHT22;20423;49.448;9.056;2022-07-06T10:07:59;22.60;99.90
34147;DHT22;20423;49.448;9.056;2022-07-06T10:10:38;24.20;99.90
34147;DHT22;20423;49.448;9.056;2022-07-06T10:13:04;24.70;97.60
34147;DHT22;20423;49.448;9.056;2022-07-06T10:15:35;23.60;98.30
34147;DHT22;20423;49.448;9.056;2022-07-06T10:18:10;22.60;98.20
34147;DHT22;20423;49.448;9.056;2022-07-06T10:20:38;21.80;99.90
34147;DHT22;20423;49.448;9.056;2022-07-06T10:23:06;22.20;99.40
34147;DHT22;20423;49.448;9.056;2022-07-06T10:25:33;22.00;98.80
34147;DHT22;20423;49.448;9.056;2022-07-06T10:28:00;22.90;98.90
34147;DHT22;20423;49.448;9.056;2022-07-06T10:30:27;23.60;97.10
34147;DHT22;20423;49.448;9.056;2022-07-06T10:32:56;23.50;97.30
34147;DHT22;20423;49.448;9.056;2022-07-06T10:35:22;23.40;97.70
34147;DHT22;20423;49.448;9.056;2022-07-06T10:38:05;23.70;96.80
34147;DHT22;20423;49.448;9.056;2022-07-06T10:40:35;23.70;96.70
34147;DHT22;20423;49.448;9.056;2022-07-06T10:43:20;23.20;96.20
34147;DHT22;20423;49.448;9.056;2022-07-06T10:50:46;23.60;95.70
34147;DHT22;20423;49.448;9.056;2022-07-06T10:53:25;23.60;95.10
34147;DHT22;20423;49.448;9.056;2022-07-06T10:55:55;23.20;95.20
34147;DHT22;20423;49.448;9.056;2022-07-06T10:58:50;23.30;94.50
34147;DHT22;20423;49.448;9.056;2022-07-06T11:01:27;23.70;94.30
34147;DHT22;20423;49.448;9.056;2022-07-06T11:06:24;22.80;95.70
34147;DHT22;20423;49.448;9.056;2022-07-06T11:09:00;22.60;96.70
34147;DHT22;20423;49.448;9.056;2022-07-06T11:14:20;22.50;96.40
34147;DHT22;20423;49.448;9.056;2022-07-06T11:19:20;22.10;96.40
34147;DHT22;20423;49.448;9.056;2022-07-06T11:21:48;22.00;96.40
34147;DHT22;20423;49.448;9.056;2022-07-06T11:24:21;22.60;96.30
34147;DHT22;20423;49.448;9.056;2022-07-06T11:26:48;23.30;95.60
34147;DHT22;20423;49.448;9.056;2022-07-06T11:29:16;23.30;95.20
34147;DHT22;20423;49.448;9.056;2022-07-06T11:31:45;23.60;94.50
34147;DHT22;20423;49.448;9.056;2022-07-06T11:34:13;23.40;94.80
34147;DHT22;20423;49.448;9.056;2022-07-06T11:36:42;23.00;94.40
34147;DHT22;20423;49.448;9.056;2022-07-06T11:39:08;21.70;95.40
34147;DHT22;20423;49.448;9.056;2022-07-06T11:41:34;21.90;96.10
34147;DHT22;20423;49.448;9.056;2022-07-06T11:44:00;22.40;95.30
34147;DHT22;20423;49.448;9.056;2022-07-06T11:46:36;23.00;94.10
34147;DHT22;20423;49.448;9.056;2022-07-06T11:49:06;23.30;93.90
34147;DHT22;20423;49.448;9.056;2022-07-06T11:51:37;23.50;94.20
34147;DHT22;20423;49.448;9.056;2022-07-06T11:54:13;23.60;93.40
34147;DHT22;20423;49.448;9.056;2022-07-06T11:56:52;23.10;92.50
34147;DHT22;20423;49.448;9.056;2022-07-06T12:02:04;22.60;91.70
34147;DHT22;20423;49.448;9.056;2022-07-06T12:04:31;22.50;92.50
34147;DHT22;20423;49.448;9.056;2022-07-06T12:07:05;22.30;91.60
34147;DHT22;20423;49.448;9.056;2022-07-06T12:09:37;22.40;91.60
34147;DHT22;20423;49.448;9.056;2022-07-06T12:12:03;22.60;92.20
34147;DHT22;20423;49.448;9.056;2022-07-06T12:14:31;22.90;91.70
34147;DHT22;20423;49.448;9.056;2022-07-06T12:17:17;23.00;93.60
34147;DHT22;20423;49.448;9.056;2022-07-06T12:19:43;22.40;93.20
34147;DHT22;20423;49.448;9.056;2022-07-06T12:22:09;22.30;93.10
34147;DHT22;20423;49.448;9.056;2022-07-06T12:24:42;22.20;90.80
34147;DHT22;20423;49.448;9.056;2022-07-06T12:27:15;22.60;91.50
34147;DHT22;20423;49.448;9.056;2022-07-06T12:29:41;22.80;88.90
34147;DHT22;20423;49.448;9.056;2022-07-06T12:32:17;22.80;90.60
34147;DHT22;20423;49.448;9.056;2022-07-06T12:34:44;22.50;89.90
34147;DHT22;20423;49.448;9.056;2022-07-06T12:37:10;22.50;90.50
34147;DHT22;20423;49.448;9.056;2022-07-06T12:39:47;22.90;89.40
34147;DHT22;20423;49.448;9.056;2022-07-06T12:42:17;23.20;88.80
34147;DHT22;20423;49.448;9.056;2022-07-06T12:44:48;23.60;88.00
34147;DHT22;20423;49.448;9.056;2022-07-06T12:47:18;24.10;86.40
34147;DHT22;20423;49.448;9.056;2022-07-06T12:49:44;24.20;85.00
34147;DHT22;20423;49.448;9.056;2022-07-06T12:52:18;23.90;81.30
34147;DHT22;20423;49.448;9.056;2022-07-06T12:54:51;23.90;81.70
34147;DHT22;20423;49.448;9.056;2022-07-06T12:57:26;24.00;80.70
34147;DHT22;20423;49.448;9.056;2022-07-06T13:04:55;24.80;79.20
34147;DHT22;20423;49.448;9.056;2022-07-06T13:07:21;24.60;80.00
34147;DHT22;20423;49.448;9.056;2022-07-06T13:09:47;24.70;79.40
34147;DHT22;20423;49.448;9.056;2022-07-06T13:12:13;24.20;74.40
34147;DHT22;20423;49.448;9.056;2022-07-06T13:14:38;24.20;73.20
34147;DHT22;20423;49.448;9.056;2022-07-06T13:17:04;24.30;74.40
34147;DHT22;20423;49.448;9.056;2022-07-06T13:19:30;24.80;72.40
34147;DHT22;20423;49.448;9.056;2022-07-06T13:21:55;25.40;70.60
34147;DHT22;20423;49.448;9.056;2022-07-06T13:24:24;25.20;71.60
34147;DHT22;20423;49.448;9.056;2022-07-06T13:26:50;24.80;72.40
34147;DHT22;20423;49.448;9.056;2022-07-06T13:29:16;24.40;70.70
34147;DHT22;20423;49.448;9.056;2022-07-06T13:31:42;23.90;72.50
34147;DHT22;20423;49.448;9.056;2022-07-06T13:34:08;23.60;68.20
34147;DHT22;20423;49.448;9.056;2022-07-06T13:36:34;23.90;67.50
34147;DHT22;20423;49.448;9.056;2022-07-06T13:39:03;23.90;69.30
34147;DHT22;20423;49.448;9.056;2022-07-06T13:41:28;24.50;68.60
34147;DHT22;20423;49.448;9.056;2022-07-06T13:43:54;24.50;68.40
34147;DHT22;20423;49.448;9.056;2022-07-06T13:46:20;24.40;69.10
34147;DHT22;20423;49.448;9.056;2022-07-06T13:48:46;24.30;67.90
34147;DHT22;20423;49.448;9.056;2022-07-06T13:51:12;24.30;65.70
34147;DHT22;20423;49.448;9.056;2022-07-06T13:53:40;24.00;66.70
34147;DHT22;20423;49.448;9.056;2022-07-06T13:56:06;24.60;65.10
34147;DHT22;20423;49.448;9.056;2022-07-06T13:58:33;24.80;63.00
34147;DHT22;20423;49.448;9.056;2022-07-06T14:00:59;24.80;64.50
34147;DHT22;20423;49.448;9.056;2022-07-06T14:03:25;24.70;64.60
34147;DHT22;20423;49.448;9.056;2022-07-06T14:05:55;25.30;64.40
34147;DHT22;20423;49.448;9.056;2022-07-06T14:08:25;25.30;63.60
34147;DHT22;20423;49.448;9.056;2022-07-06T14:10:52;25.50;65.00
34147;DHT22;20423;49.448;9.056;2022-07-06T14:13:19;25.40;63.60
34147;DHT22;20423;49.448;9.056;2022-07-06T14:15:45;25.20;65.70
34147;DHT22;20423;49.448;9.056;2022-07-06T14:18:14;25.00;63.90
34147;DHT22;20423;49.448;9.056;2022-07-06T14:20:44;24.80;66.60
34147;DHT22;20423;49.448;9.056;2022-07-06T14:23:10;25.10;65.50
34147;DHT22;20423;49.448;9.056;2022-07-06T14:25:37;25.40;63.90
34147;DHT22;20423;49.448;9.056;2022-07-06T14:28:03;25.20;65.00
34147;DHT22;20423;49.448;9.056;2022-07-06T14:30:29;24.90;66.20
34147;DHT22;20423;49.448;9.056;2022-07-06T14:32:57;24.40;66.50
34147;DHT22;20423;49.448;9.056;2022-07-06T14:35:23;24.40;64.60
34147;DHT22;20423;49.448;9.056;2022-07-06T14:37:50;24.20;63.80
34147;DHT22;20423;49.448;9.056;2022-07-06T14:40:16;24.00;67.10
34147;DHT22;20423;49.448;9.056;2022-07-06T14:42:42;24.00;67.20
34147;DHT22;20423;49.448;9.056;2022-07-06T14:45:08;24.20;65.80
34147;DHT22;20423;49.448;9.056;2022-07-06T14:47:34;24.50;66.10
34147;DHT22;20423;49.448;9.056;2022-07-06T14:50:02;24.70;65.90
34147;DHT22;20423;49.448;9.056;2022-07-06T14:52:28;24.80;63.30
34147;DHT22;20423;49.448;9.056;2022-07-06T14:54:54;24.50;65.30
34147;DHT22;20423;49.448;9.056;2022-07-06T14:57:19;23.80;64.50
34147;DHT22;20423;49.448;9.056;2022-07-06T14:59:45;23.20;66.00
34147;DHT22;20423;49.448;9.056;2022-07-06T15:02:14;22.50;67.40
34147;DHT22;20423;49.448;9.056;2022-07-06T15:04:40;21.80;69.90
34147;DHT22;20423;49.448;9.056;2022-07-06T15:07:06;21.50;70.80
34147;DHT22;20423;49.448;9.056;2022-07-06T15:09:32;21.40;72.00
34147;DHT22;20423;49.448;9.056;2022-07-06T15:11:58;21.30;70.90
34147;DHT22;20423;49.448;9.056;2022-07-06T15:14:24;21.40;71.40
34147;DHT22;20423;49.448;9.056;2022-07-06T15:16:52;21.40;71.80
34147;DHT22;20423;49.448;9.056;2022-07-06T15:19:21;21.40;71.00
34147;DHT22;20423;49.448;9.056;2022-07-06T15:21:47;21.20;71.10
34147;DHT22;20423;49.448;9.056;2022-07-06T15:24:13;21.10;70.50
34147;DHT22;20423;49.448;9.056;2022-07-06T15:26:39;21.00;69.90
34147;DHT22;20423;49.448;9.056;2022-07-06T15:29:06;21.00;69.60
34147;DHT22;20423;49.448;9.056;2022-07-06T15:31:36;20.90;70.20
34147;DHT22;20423;49.448;9.056;2022-07-06T15:34:02;20.80;71.70
34147;DHT22;20423;49.448;9.056;2022-07-06T15:36:28;20.90;72.70
34147;DHT22;20423;49.448;9.056;2022-07-06T15:38:54;20.80;71.90
34147;DHT22;20423;49.448;9.056;2022-07-06T15:41:20;20.90;73.40
34147;DHT22;20423;49.448;9.056;2022-07-06T15:43:46;20.80;73.10
34147;DHT22;20423;49.448;9.056;2022-07-06T15:46:19;20.80;72.50
34147;DHT22;20423;49.448;9.056;2022-07-06T15:48:45;20.70;72.70
34147;DHT22;20423;49.448;9.056;2022-07-06T15:51:11;20.80;73.40
34147;DHT22;20423;49.448;9.056;2022-07-06T15:53:36;20.90;73.60